Time,TemperatureF,DewpointF,PressureIn,WindDirection,WindDirectionDegrees,WindSpeedMPH,WindSpeedGustMPH,Humidity,HourlyPrecipIn,Conditions,Clouds,dailyrainin,SoftwareType,DateUTC
2013-02-25 00:04:00,30.2,30.2,29.35,NNW,338,0.0,0.0,100,-99.99,,,-99.99,WSDL version 423,2013-02-25 05:04:00,
2013-02-25 00:09:00,30.2,30.2,29.38,NNW,338,0.0,0.0,100,-99.99,,,-99.99,WSDL version 423,2013-02-25 05:09:00,
2013-02-25 00:14:00,30.2,30.2,29.38,NNW,338,0.0,0.0,100,-99.99,,,-99.99,WSDL version 423,2013-02-25 05:14:00,
2013-02-25 00:19:00,30.1,30.1,29.38,NNW,338,0.0,0.0,100,-99.99,,,-99.99,WSDL version 423,2013-02-25 05:19:00,
2013-02-25 00:24:00,30.0,30.0,29.38,NNW,338,0.0,0.0,100,-99.99,,,-99.99,WSDL version 423,2013-02-25 05:24:00,
2013-02-25 00:29:00,30.0,30.0,29.38,NNW,338,0.0,0.0,100,-99.99,,,-99.99,WSDL version 423,2013-02-25 05:29:00,
2013-02-25 00:34:00,30.0,30.0,29.38,NNW,338,0.0,0.0,100,-99.99,,,-99.99,WSDL version 423,2013-02-25 05:34:00,
2013-02-25 00:39:00,30.0,30.0,29.38,NNW,338,0.0,0.0,100,-99.99,,,-99.99,WSDL version 423,2013-02-25 05:39:00,
2013-02-25 00:44:00,30.0,30.0,29.38,NNW,338,0.0,0.0,100,-99.99,,,-99.99,WSDL version 423,2013-02-25 05:44:00,
2013-02-25 00:49:00,30.2,30.2,29.38,NNW,338,0.0,0.0,100,-99.99,,,-99.99,WSDL version 423,2013-02-25 05:49:00,
2013-02-25 00:54:00,30.2,30.2,29.38,NNW,338,0.0,0.0,100,-99.99,,,-99.99,WSDL version 423,2013-02-25 05:54:00,
2013-02-25 00:59:00,30.2,30.2,29.38,NNW,338,0.0,0.0,100,-99.99,,,-99.99,WSDL version 423,2013-02-25 05:59:00,
2013-02-25 01:04:00,30.0,30.0,29.38,NNW,338,0.0,0.0,100,-99.99,,,-99.99,WSDL version 423,2013-02-25 06:04:00,
2013-02-25 01:14:00,30.0,30.0,29.38,NNW,338,0.0,0.0,100,-99.99,,,-99.99,WSDL version 423,2013-02-25 06:14:00,
2013-02-25 01:19:00,30.0,30.0,29.38,NNW,338,0.0,0.0,100,-99.99,,,-99.99,WSDL version 423,2013-02-25 06:19:00,
2013-02-25 01:24:00,30.0,30.0,29.38,NNW,338,0.0,0.0,100,-99.99,,,-99.99,WSDL version 423,2013-02-25 06:24:00,
2013-02-25 01:29:00,30.0,30.0,29.38,NNW,338,0.0,0.0,100,-99.99,,,-99.99,WSDL version 423,2013-02-25 06:29:00,
2013-02-25 01:34:00,30.0,30.0,29.38,NNW,338,0.0,0.0,100,-99.99,,,-99.99,WSDL version 423,2013-02-25 06:34:00,
2013-02-25 01:39:00,30.0,30.0,29.38,NNW,338,0.0,0.0,100,-99.99,,,-99.99,WSDL version 423,2013-02-25 06:39:00,
2013-02-25 01:44:00,29.9,29.9,29.38,NNW,338,0.0,0.0,100,-99.99,,,-99.99,WSDL version 423,2013-02-25 06:44:00,
2013-02-25 01:49:00,29.8,29.8,29.38,NNW,338,0.0,0.0,100,-99.99,,,-99.99,WSDL version 423,2013-02-25 06:49:00,
2013-02-25 01:54:00,29.8,29.8,29.41,NNW,338,0.0,0.0,100,-99.99,,,-99.99,WSDL version 423,2013-02-25 06:54:00,
2013-02-25 01:59:00,29.8,29.8,29.41,NNW,338,0.0,0.0,100,-99.99,,,-99.99,WSDL version 423,2013-02-25 06:59:00,
2013-02-25 02:04:00,29.8,29.8,29.41,NNW,338,0.0,0.0,100,-99.99,,,-99.99,WSDL version 423,2013-02-25 07:04:00,
2013-02-25 02:14:00,29.8,29.8,29.41,NNW,338,0.0,0.0,100,-99.99,,,-99.99,WSDL version 423,2013-02-25 07:14:00,
2013-02-25 02:19:00,29.8,29.8,29.41,NNW,338,0.0,0.0,100,-99.99,,,-99.99,WSDL version 423,2013-02-25 07:19:00,
2013-02-25 02:24:00,29.8,29.8,29.41,NNW,338,0.0,0.0,100,-99.99,,,-99.99,WSDL version 423,2013-02-25 07:24:00,
2013-02-25 02:29:00,29.8,29.8,29.41,NNW,338,0.0,0.0,100,-99.99,,,-99.99,WSDL version 423,2013-02-25 07:29:00,
2013-02-25 02:34:00,29.7,29.7,29.41,NNW,338,0.0,0.0,100,-99.99,,,-99.99,WSDL version 423,2013-02-25 07:34:00,
2013-02-25 02:39:00,29.6,29.6,29.41,NNW,338,0.0,0.0,100,-99.99,,,-99.99,WSDL version 423,2013-02-25 07:39:00,
2013-02-25 02:44:00,29.5,29.5,29.41,NNW,338,0.0,0.0,100,-99.99,,,-99.99,WSDL version 423,2013-02-25 07:44:00,
2013-02-25 02:49:00,29.5,29.5,29.41,NNW,338,0.0,0.0,100,-99.99,,,-99.99,WSDL version 423,2013-02-25 07:49:00,
2013-02-25 02:54:00,29.3,29.3,29.41,NNW,338,0.0,0.0,100,-99.99,,,-99.99,WSDL version 423,2013-02-25 07:54:00,
2013-02-25 02:59:00,29.3,29.3,29.41,NNW,338,0.0,0.0,100,-99.99,,,-99.99,WSDL version 423,2013-02-25 07:59:00,
2013-02-25 03:04:00,29.3,29.3,29.41,NNW,338,0.0,0.0,100,-99.99,,,-99.99,WSDL version 423,2013-02-25 08:04:00,
2013-02-25 03:09:00,29.1,29.1,29.41,NNW,338,0.0,0.0,100,-99.99,,,-99.99,WSDL version 423,2013-02-25 08:09:00,
2013-02-25 03:14:00,29.1,29.1,29.41,NNW,338,0.0,0.0,100,-99.99,,,-99.99,WSDL version 423,2013-02-25 08:14:00,
2013-02-25 03:19:00,29.2,29.2,29.41,NNW,338,0.0,0.0,100,-99.99,,,-99.99,WSDL version 423,2013-02-25 08:19:00,
2013-02-25 03:24:00,29.3,29.3,29.41,NNW,338,0.0,0.0,100,-99.99,,,-99.99,WSDL version 423,2013-02-25 08:24:00,
2013-02-25 03:29:00,29.3,29.3,29.41,NNW,338,0.0,0.0,100,-99.99,,,-99.99,WSDL version 423,2013-02-25 08:29:00,
2013-02-25 03:34:00,29.3,29.3,29.41,NNW,338,0.0,0.0,100,-99.99,,,-99.99,WSDL version 423,2013-02-25 08:34:00,
2013-02-25 03:39:00,29.3,29.3,29.41,NNW,338,0.0,0.0,100,-99.99,,,-99.99,WSDL version 423,2013-02-25 08:39:00,
2013-02-25 03:44:00,29.1,29.1,29.41,NNW,338,0.0,0.0,100,-99.99,,,-99.99,WSDL version 423,2013-02-25 08:44:00,
2013-02-25 03:49:00,29.0,29.0,29.41,NNW,338,0.0,0.0,100,-99.99,,,-99.99,WSDL version 423,2013-02-25 08:49:00,
2013-02-25 03:54:00,28.9,28.9,29.44,NNW,338,0.0,0.0,100,-99.99,,,-99.99,WSDL version 423,2013-02-25 08:54:00,
2013-02-25 03:59:00,28.8,28.8,29.44,NNW,338,0.0,0.0,100,-99.99,,,-99.99,WSDL version 423,2013-02-25 08:59:00,
2013-02-25 04:04:00,28.8,28.8,29.44,NNW,338,0.0,0.0,100,-99.99,,,-99.99,WSDL version 423,2013-02-25 09:04:00,
2013-02-25 04:09:00,28.8,28.8,29.41,NNW,338,0.0,0.0,100,-99.99,,,-99.99,WSDL version 423,2013-02-25 09:09:00,
2013-02-25 04:14:00,28.8,28.8,29.41,NNW,338,0.0,0.0,100,-99.99,,,-99.99,WSDL version 423,2013-02-25 09:14:00,
2013-02-25 04:24:00,28.8,28.8,29.44,NNW,338,0.0,0.0,100,-99.99,,,-99.99,WSDL version 423,2013-02-25 09:24:00,
2013-02-25 04:29:00,28.8,28.8,29.44,NNW,338,0.0,0.0,100,-99.99,,,-99.99,WSDL version 423,2013-02-25 09:29:00,
2013-02-25 04:34:00,28.8,28.8,29.44,NNW,338,0.0,0.0,100,-99.99,,,-99.99,WSDL version 423,2013-02-25 09:34:00,
2013-02-25 04:39:00,28.7,28.7,29.44,NNW,338,0.0,0.0,100,-99.99,,,-99.99,WSDL version 423,2013-02-25 09:39:00,
2013-02-25 04:44:00,28.6,28.6,29.44,NNW,338,0.0,0.0,100,-99.99,,,-99.99,WSDL version 423,2013-02-25 09:44:00,
2013-02-25 04:49:00,28.6,28.6,29.44,NNW,338,0.0,0.0,100,-99.99,,,-99.99,WSDL version 423,2013-02-25 09:49:00,
2013-02-25 04:54:00,28.6,28.6,29.44,NNW,338,0.0,0.0,100,-99.99,,,-99.99,WSDL version 423,2013-02-25 09:54:00,
2013-02-25 05:04:00,28.5,28.5,29.44,NNW,338,0.0,0.0,100,-99.99,,,-99.99,WSDL version 423,2013-02-25 10:04:00,
2013-02-25 05:09:00,28.6,28.6,29.44,NNW,338,0.0,0.0,100,-99.99,,,-99.99,WSDL version 423,2013-02-25 10:09:00,
2013-02-25 05:14:00,28.6,28.6,29.44,NNW,338,0.0,0.0,100,-99.99,,,-99.99,WSDL version 423,2013-02-25 10:14:00,
2013-02-25 05:19:00,28.5,28.5,29.44,NNW,338,0.0,0.0,100,-99.99,,,-99.99,WSDL version 423,2013-02-25 10:19:00,
2013-02-25 05:24:00,28.6,28.6,29.44,NNW,338,0.0,0.0,100,-99.99,,,-99.99,WSDL version 423,2013-02-25 10:24:00,
2013-02-25 05:29:00,28.6,28.6,29.44,NNW,338,0.0,0.0,100,-99.99,,,-99.99,WSDL version 423,2013-02-25 10:29:00,
2013-02-25 05:34:00,28.4,28.4,29.44,NNW,338,0.0,0.0,100,-99.99,,,-99.99,WSDL version 423,2013-02-25 10:34:00,
2013-02-25 05:39:00,28.4,28.4,29.47,NNW,338,0.0,0.0,100,-99.99,,,-99.99,WSDL version 423,2013-02-25 10:39:00,
2013-02-25 05:44:00,28.2,28.2,29.47,NNW,338,0.0,0.0,100,-99.99,,,-99.99,WSDL version 423,2013-02-25 10:44:00,
2013-02-25 05:49:00,28.2,28.2,29.47,NNW,338,0.0,0.0,100,-99.99,,,-99.99,WSDL version 423,2013-02-25 10:49:00,
2013-02-25 05:54:00,28.2,28.2,29.44,NNW,338,0.0,0.0,100,-99.99,,,-99.99,WSDL version 423,2013-02-25 10:54:00,
2013-02-25 05:59:00,28.2,28.2,29.44,NNW,338,0.0,0.0,100,-99.99,,,-99.99,WSDL version 423,2013-02-25 10:59:00,
2013-02-25 06:04:00,28.2,28.2,29.44,NNW,338,0.0,0.0,100,-99.99,,,-99.99,WSDL version 423,2013-02-25 11:04:00,
2013-02-25 06:09:00,28.2,28.2,29.44,NNW,338,0.0,0.0,100,-99.99,,,-99.99,WSDL version 423,2013-02-25 11:09:00,
2013-02-25 06:14:00,28.2,28.2,29.44,NNW,338,0.0,0.0,100,-99.99,,,-99.99,WSDL version 423,2013-02-25 11:14:00,
2013-02-25 06:24:00,28.1,28.1,29.47,NNW,338,0.0,0.0,100,-99.99,,,-99.99,WSDL version 423,2013-02-25 11:24:00,
2013-02-25 06:29:00,28.1,28.1,29.47,NNW,338,0.0,0.0,100,-99.99,,,-99.99,WSDL version 423,2013-02-25 11:29:00,
2013-02-25 06:34:00,28.2,28.2,29.47,NNW,338,0.0,0.0,100,-99.99,,,-99.99,WSDL version 423,2013-02-25 11:34:00,
2013-02-25 06:39:00,28.2,28.2,29.47,NNW,338,0.0,0.0,100,-99.99,,,-99.99,WSDL version 423,2013-02-25 11:39:00,
2013-02-25 06:44:00,28.2,28.2,29.47,NNW,338,0.0,0.0,100,-99.99,,,-99.99,WSDL version 423,2013-02-25 11:44:00,
2013-02-25 06:49:00,28.2,28.2,29.47,NNW,338,0.0,0.0,100,-99.99,,,-99.99,WSDL version 423,2013-02-25 11:49:00,
2013-02-25 06:54:00,28.2,28.2,29.47,NNW,338,0.0,0.0,100,-99.99,,,-99.99,WSDL version 423,2013-02-25 11:54:00,
2013-02-25 06:59:00,28.2,28.2,29.47,NNW,338,0.0,0.0,100,-99.99,,,-99.99,WSDL version 423,2013-02-25 11:59:00,
2013-02-25 07:04:00,28.2,28.2,29.47,NNW,338,0.0,0.0,100,-99.99,,,-99.99,WSDL version 423,2013-02-25 12:04:00,
2013-02-25 07:09:00,28.4,28.4,29.47,NNW,338,0.0,0.0,100,-99.99,,,-99.99,WSDL version 423,2013-02-25 12:09:00,
2013-02-25 07:14:00,28.5,28.5,29.47,NNW,338,0.0,0.0,100,-99.99,,,-99.99,WSDL version 423,2013-02-25 12:14:00,
2013-02-25 07:19:00,28.6,28.6,29.47,NNW,338,0.0,0.0,100,-99.99,,,-99.99,WSDL version 423,2013-02-25 12:19:00,
2013-02-25 07:24:00,28.8,28.8,29.47,NNW,338,0.0,0.0,100,-99.99,,,-99.99,WSDL version 423,2013-02-25 12:24:00,
2013-02-25 07:29:00,29.1,29.1,29.47,NNW,338,0.0,0.0,100,-99.99,,,-99.99,WSDL version 423,2013-02-25 12:29:00,
2013-02-25 07:34:00,29.3,29.3,29.47,NNW,338,0.0,0.0,100,-99.99,,,-99.99,WSDL version 423,2013-02-25 12:34:00,
2013-02-25 07:39:00,29.5,29.5,29.50,NNW,338,0.0,0.0,100,-99.99,,,-99.99,WSDL version 423,2013-02-25 12:39:00,
2013-02-25 07:44:00,29.8,29.8,29.50,NNW,338,0.0,0.0,100,-99.99,,,-99.99,WSDL version 423,2013-02-25 12:44:00,
2013-02-25 07:49:00,30.1,30.1,29.50,NNW,338,0.0,0.0,100,-99.99,,,-99.99,WSDL version 423,2013-02-25 12:49:00,
2013-02-25 07:54:00,30.4,30.4,29.50,NNW,338,0.0,0.0,100,-99.99,,,-99.99,WSDL version 423,2013-02-25 12:54:00,
2013-02-25 08:04:00,31.1,31.1,29.50,NNW,338,0.0,0.0,100,-99.99,,,-99.99,WSDL version 423,2013-02-25 13:04:00,
2013-02-25 08:14:00,31.9,31.9,29.50,NNW,338,0.0,0.0,100,-99.99,,,-99.99,WSDL version 423,2013-02-25 13:14:00,
2013-02-25 08:19:00,32.4,32.4,29.50,NNW,338,0.0,0.0,100,-99.99,,,-99.99,WSDL version 423,2013-02-25 13:19:00,
2013-02-25 08:24:00,32.6,32.6,29.50,NNW,338,0.0,0.0,100,-99.99,,,-99.99,WSDL version 423,2013-02-25 13:24:00,
2013-02-25 08:29:00,33.0,33.0,29.50,NNW,338,0.0,0.0,100,-99.99,,,-99.99,WSDL version 423,2013-02-25 13:29:00,
2013-02-25 08:34:00,33.3,33.3,29.50,NNW,338,0.0,0.0,100,-99.99,,,-99.99,WSDL version 423,2013-02-25 13:34:00,
2013-02-25 08:39:00,33.6,33.6,29.50,NNW,338,0.0,0.0,100,-99.99,,,-99.99,WSDL version 423,2013-02-25 13:39:00,
2013-02-25 08:44:00,33.9,33.9,29.50,NNW,338,0.0,0.0,100,-99.99,,,-99.99,WSDL version 423,2013-02-25 13:44:00,
2013-02-25 08:49:00,34.3,34.3,29.50,NNW,338,0.0,0.0,100,-99.99,,,-99.99,WSDL version 423,2013-02-25 13:49:00,
2013-02-25 08:54:00,34.6,34.6,29.53,NNW,338,0.0,0.0,100,-99.99,,,-99.99,WSDL version 423,2013-02-25 13:54:00,
2013-02-25 08:59:00,34.9,34.9,29.53,NNW,338,0.0,0.0,100,-99.99,,,-99.99,WSDL version 423,2013-02-25 13:59:00,
2013-02-25 09:04:00,35.0,35.0,29.53,NNW,338,0.0,0.0,100,-99.99,,,-99.99,WSDL version 423,2013-02-25 14:04:00,
2013-02-25 09:14:00,35.4,35.4,29.53,NNW,338,0.0,0.0,100,-99.99,,,-99.99,WSDL version 423,2013-02-25 14:14:00,
2013-02-25 09:19:00,35.6,35.6,29.53,NNW,338,0.0,0.0,100,-99.99,,,-99.99,WSDL version 423,2013-02-25 14:19:00,
2013-02-25 09:24:00,35.8,35.8,29.53,NNW,338,0.0,0.0,100,-99.99,,,-99.99,WSDL version 423,2013-02-25 14:24:00,
2013-02-25 09:29:00,35.9,35.9,29.53,NNW,338,0.0,0.0,100,-99.99,,,-99.99,WSDL version 423,2013-02-25 14:29:00,
2013-02-25 09:34:00,36.1,36.1,29.53,NNW,338,0.0,0.0,100,-99.99,,,-99.99,WSDL version 423,2013-02-25 14:34:00,
2013-02-25 09:39:00,36.2,36.2,29.53,NNW,338,0.0,0.0,100,-99.99,,,-99.99,WSDL version 423,2013-02-25 14:39:00,
2013-02-25 09:44:00,36.1,36.0,29.53,NNW,338,0.0,0.0,99,-99.99,,,-99.99,WSDL version 423,2013-02-25 14:44:00,
2013-02-25 09:49:00,35.8,35.0,29.53,NNW,338,0.0,0.0,97,-99.99,,,-99.99,WSDL version 423,2013-02-25 14:49:00,
2013-02-25 09:54:00,35.8,35.0,29.53,NNW,338,0.0,0.0,97,-99.99,,,-99.99,WSDL version 423,2013-02-25 14:54:00,
2013-02-25 09:59:00,36.1,35.3,29.53,NNW,338,0.0,0.0,97,-99.99,,,-99.99,WSDL version 423,2013-02-25 14:59:00,
2013-02-25 10:04:00,36.3,35.4,29.53,NNW,338,0.0,0.0,97,-99.99,,,-99.99,WSDL version 423,2013-02-25 15:04:00,
2013-02-25 10:09:00,36.4,35.4,29.56,NNW,338,0.0,0.0,96,-99.99,,,-99.99,WSDL version 423,2013-02-25 15:09:00,
2013-02-25 10:14:00,36.7,35.5,29.56,NNW,338,0.0,0.0,96,-99.99,,,-99.99,WSDL version 423,2013-02-25 15:14:00,
2013-02-25 10:19:00,36.9,35.5,29.56,NNW,338,0.0,0.0,94,-99.99,,,-99.99,WSDL version 423,2013-02-25 15:19:00,
2013-02-25 10:24:00,37.0,35.5,29.56,NNW,338,0.0,0.0,93,-99.99,,,-99.99,WSDL version 423,2013-02-25 15:24:00,
2013-02-25 10:29:00,37.3,35.7,29.56,NNW,338,0.0,0.0,93,-99.99,,,-99.99,WSDL version 423,2013-02-25 15:29:00,
2013-02-25 10:34:00,37.7,36.0,29.56,NNW,338,0.0,0.0,93,-99.99,,,-99.99,WSDL version 423,2013-02-25 15:34:00,
2013-02-25 10:39:00,38.0,36.1,29.56,NNW,338,0.0,0.0,92,-99.99,,,-99.99,WSDL version 423,2013-02-25 15:39:00,
2013-02-25 10:44:00,38.4,35.9,29.56,NNW,338,0.0,0.0,90,-99.99,,,-99.99,WSDL version 423,2013-02-25 15:44:00,
2013-02-25 10:49:00,38.8,36.1,29.56,NNW,338,0.0,0.0,90,-99.99,,,-99.99,WSDL version 423,2013-02-25 15:49:00,
2013-02-25 10:54:00,39.5,36.5,29.56,NNW,338,0.0,0.0,89,-99.99,,,-99.99,WSDL version 423,2013-02-25 15:54:00,
2013-02-25 10:59:00,40.0,37.0,29.56,NNW,338,0.0,0.0,89,-99.99,,,-99.99,WSDL version 423,2013-02-25 15:59:00,
2013-02-25 11:04:00,40.6,37.4,29.56,NNW,338,0.0,0.0,88,-99.99,,,-99.99,WSDL version 423,2013-02-25 16:04:00,
2013-02-25 11:09:00,40.5,36.1,29.56,NNW,338,0.0,0.0,81,-99.99,,,-99.99,WSDL version 423,2013-02-25 16:09:00,
2013-02-25 11:14:00,40.5,35.1,29.56,NNW,338,0.0,0.0,81,-99.99,,,-99.99,WSDL version 423,2013-02-25 16:14:00,
2013-02-25 11:19:00,40.6,34.8,29.56,NNW,338,0.0,0.0,79,-99.99,,,-99.99,WSDL version 423,2013-02-25 16:19:00,
2013-02-25 11:24:00,40.8,34.9,29.56,NNW,338,0.0,0.0,79,-99.99,,,-99.99,WSDL version 423,2013-02-25 16:24:00,
2013-02-25 11:29:00,41.1,35.1,29.56,NNW,338,0.0,0.0,79,-99.99,,,-99.99,WSDL version 423,2013-02-25 16:29:00,
2013-02-25 11:34:00,41.2,34.9,29.56,NNW,338,0.0,0.0,78,-99.99,,,-99.99,WSDL version 423,2013-02-25 16:34:00,
2013-02-25 11:39:00,41.1,34.4,29.56,NNW,338,0.0,0.0,76,-99.99,,,-99.99,WSDL version 423,2013-02-25 16:39:00,
2013-02-25 11:44:00,40.9,34.0,29.56,NNW,338,0.0,0.0,76,-99.99,,,-99.99,WSDL version 423,2013-02-25 16:44:00,
2013-02-25 11:49:00,40.6,33.4,29.56,NNW,338,0.0,0.0,75,-99.99,,,-99.99,WSDL version 423,2013-02-25 16:49:00,
2013-02-25 11:54:00,40.6,33.5,29.56,NNW,338,0.0,0.0,76,-99.99,,,-99.99,WSDL version 423,2013-02-25 16:54:00,
2013-02-25 11:59:00,40.1,32.9,29.56,NNW,338,0.0,0.0,75,-99.99,,,-99.99,WSDL version 423,2013-02-25 16:59:00,
2013-02-25 12:04:00,39.5,32.3,29.56,NNW,338,0.0,0.0,75,-99.99,,,-99.99,WSDL version 423,2013-02-25 17:04:00,
2013-02-25 12:14:00,39.2,32.4,29.56,NNW,338,0.0,0.0,77,-99.99,,,-99.99,WSDL version 423,2013-02-25 17:14:00,
2013-02-25 12:19:00,39.4,33.1,29.56,NNW,338,0.0,0.0,78,-99.99,,,-99.99,WSDL version 423,2013-02-25 17:19:00,
2013-02-25 12:24:00,39.6,33.3,29.56,NNW,338,0.0,0.0,78,-99.99,,,-99.99,WSDL version 423,2013-02-25 17:24:00,
2013-02-25 12:29:00,40.0,33.8,29.56,NNW,338,0.0,0.0,78,-99.99,,,-99.99,WSDL version 423,2013-02-25 17:29:00,
2013-02-25 12:34:00,40.3,34.0,29.56,NNW,338,0.0,0.0,78,-99.99,,,-99.99,WSDL version 423,2013-02-25 17:34:00,
2013-02-25 12:39:00,41.1,34.8,29.56,NNW,338,0.0,0.0,78,-99.99,,,-99.99,WSDL version 423,2013-02-25 17:39:00,
2013-02-25 12:44:00,41.6,35.0,29.56,NNW,338,0.0,0.0,76,-99.99,,,-99.99,WSDL version 423,2013-02-25 17:44:00,
2013-02-25 12:49:00,42.1,35.1,29.56,NNW,338,0.0,0.0,76,-99.99,,,-99.99,WSDL version 423,2013-02-25 17:49:00,
2013-02-25 12:54:00,42.3,35.1,29.56,NNW,338,0.0,0.0,75,-99.99,,,-99.99,WSDL version 423,2013-02-25 17:54:00,
2013-02-25 12:59:00,42.5,34.8,29.56,NNW,338,0.0,0.0,73,-99.99,,,-99.99,WSDL version 423,2013-02-25 17:59:00,
2013-02-25 13:04:00,42.8,34.6,29.56,NNW,338,0.0,0.0,72,-99.99,,,-99.99,WSDL version 423,2013-02-25 18:04:00,
2013-02-25 13:09:00,43.2,34.7,29.56,NNW,338,0.0,0.0,72,-99.99,,,-99.99,WSDL version 423,2013-02-25 18:09:00,
2013-02-25 13:19:00,43.6,34.6,29.56,NNW,338,0.0,0.0,70,-99.99,,,-99.99,WSDL version 423,2013-02-25 18:19:00,
2013-02-25 13:24:00,44.2,34.7,29.56,WNW,293,0.0,0.0,69,-99.99,,,-99.99,WSDL version 423,2013-02-25 18:24:00,
2013-02-25 13:34:00,44.2,33.8,29.56,WNW,293,0.0,0.0,66,-99.99,,,-99.99,WSDL version 423,2013-02-25 18:34:00,
2013-02-25 13:39:00,44.5,33.9,29.56,West,270,0.0,0.0,66,-99.99,,,-99.99,WSDL version 423,2013-02-25 18:39:00,
2013-02-25 13:44:00,44.4,33.7,29.56,West,270,0.0,0.0,65,-99.99,,,-99.99,WSDL version 423,2013-02-25 18:44:00,
2013-02-25 13:49:00,44.1,32.9,29.56,WSW,248,0.0,0.0,63,-99.99,,,-99.99,WSDL version 423,2013-02-25 18:49:00,
2013-02-25 13:54:00,43.7,31.9,29.56,SW,228,0.0,0.0,63,-99.99,,,-99.99,WSDL version 423,2013-02-25 18:54:00,
2013-02-25 13:59:00,43.9,32.4,29.56,SW,225,0.0,0.0,64,-99.99,,,-99.99,WSDL version 423,2013-02-25 18:59:00,
2013-02-25 14:04:00,44.0,32.6,29.56,SW,225,0.0,0.0,64,-99.99,,,-99.99,WSDL version 423,2013-02-25 19:04:00,
2013-02-25 14:09:00,44.1,32.7,29.56,SW,225,0.0,0.0,64,-99.99,,,-99.99,WSDL version 423,2013-02-25 19:09:00,
2013-02-25 14:14:00,44.0,32.7,29.56,SW,225,0.0,0.0,64,-99.99,,,-99.99,WSDL version 423,2013-02-25 19:14:00,
2013-02-25 14:19:00,43.5,31.7,29.56,SW,225,0.0,0.0,63,-99.99,,,-99.99,WSDL version 423,2013-02-25 19:19:00,
2013-02-25 14:24:00,43.1,31.6,29.59,SW,225,0.0,0.0,64,-99.99,,,-99.99,WSDL version 423,2013-02-25 19:24:00,
2013-02-25 14:29:00,42.7,31.4,29.59,SW,225,0.0,0.0,64,-99.99,,,-99.99,WSDL version 423,2013-02-25 19:29:00,
2013-02-25 14:34:00,42.0,31.0,29.59,SW,225,0.0,0.0,65,-99.99,,,-99.99,WSDL version 423,2013-02-25 19:34:00,
2013-02-25 14:39:00,41.7,31.2,29.59,SSW,203,0.0,0.0,67,-99.99,,,-99.99,WSDL version 423,2013-02-25 19:39:00,
2013-02-25 14:49:00,41.8,32.0,29.59,SSW,203,0.0,0.0,68,-99.99,,,-99.99,WSDL version 423,2013-02-25 19:49:00,
2013-02-25 14:54:00,41.5,32.1,29.59,SSW,203,0.0,0.0,69,-99.99,,,-99.99,WSDL version 423,2013-02-25 19:54:00,
2013-02-25 14:59:00,41.7,32.5,29.59,SSW,203,0.0,0.0,70,-99.99,,,-99.99,WSDL version 423,2013-02-25 19:59:00,
2013-02-25 15:04:00,41.7,32.6,29.59,SSW,203,0.0,0.0,69,-99.99,,,-99.99,WSDL version 423,2013-02-25 20:04:00,
2013-02-25 15:09:00,41.0,31.7,29.59,SE,141,0.7,2.0,69,-99.99,,,-99.99,WSDL version 423,2013-02-25 20:09:00,
2013-02-25 15:14:00,40.4,31.2,29.59,SE,135,0.0,2.0,70,-99.99,,,-99.99,WSDL version 423,2013-02-25 20:14:00,
2013-02-25 15:19:00,40.3,31.8,29.59,SE,135,0.0,0.0,72,-99.99,,,-99.99,WSDL version 423,2013-02-25 20:19:00,
2013-02-25 15:24:00,40.1,31.8,29.59,SE,135,0.0,0.0,72,-99.99,,,-99.99,WSDL version 423,2013-02-25 20:24:00,
2013-02-25 15:29:00,39.6,31.5,29.59,SE,135,0.0,0.0,73,-99.99,,,-99.99,WSDL version 423,2013-02-25 20:29:00,
2013-02-25 15:34:00,39.2,31.4,29.59,SW,225,0.0,0.0,74,-99.99,,,-99.99,WSDL version 423,2013-02-25 20:34:00,
2013-02-25 15:39:00,38.9,31.6,29.59,SW,225,0.0,0.0,75,-99.99,,,-99.99,WSDL version 423,2013-02-25 20:39:00,
2013-02-25 15:44:00,38.6,31.4,29.59,SW,225,0.0,0.0,76,-99.99,,,-99.99,WSDL version 423,2013-02-25 20:44:00,
2013-02-25 15:49:00,38.3,31.4,29.59,SW,225,0.0,0.0,76,-99.99,,,-99.99,WSDL version 423,2013-02-25 20:49:00,
2013-02-25 15:54:00,37.8,30.9,29.59,SW,225,0.0,0.0,76,-99.99,,,-99.99,WSDL version 423,2013-02-25 20:54:00,
2013-02-25 16:04:00,36.7,30.3,29.59,SSW,203,0.0,0.0,78,-99.99,,,-99.99,WSDL version 423,2013-02-25 21:04:00,
2013-02-25 16:09:00,36.3,30.2,29.59,SSW,203,0.0,0.0,79,-99.99,,,-99.99,WSDL version 423,2013-02-25 21:09:00,
2013-02-25 16:14:00,36.2,30.3,29.59,SSW,203,0.0,0.0,80,-99.99,,,-99.99,WSDL version 423,2013-02-25 21:14:00,
2013-02-25 16:19:00,36.0,30.4,29.59,SSW,203,0.0,0.0,80,-99.99,,,-99.99,WSDL version 423,2013-02-25 21:19:00,
2013-02-25 16:24:00,35.8,30.6,29.59,SSW,203,0.0,0.0,81,-99.99,,,-99.99,WSDL version 423,2013-02-25 21:24:00,
2013-02-25 16:29:00,35.6,30.7,29.59,SSW,203,0.0,0.0,82,-99.99,,,-99.99,WSDL version 423,2013-02-25 21:29:00,
2013-02-25 16:39:00,35.2,30.8,29.59,SSW,203,0.0,0.0,84,-99.99,,,-99.99,WSDL version 423,2013-02-25 21:39:00,
2013-02-25 16:44:00,35.1,30.9,29.59,SSW,203,0.0,0.0,84,-99.99,,,-99.99,WSDL version 423,2013-02-25 21:44:00,
2013-02-25 16:49:00,35.0,30.8,29.59,SW,218,0.0,0.0,84,-99.99,,,-99.99,WSDL version 423,2013-02-25 21:49:00,
2013-02-25 16:54:00,34.9,30.5,29.59,West,270,0.0,0.0,84,-99.99,,,-99.99,WSDL version 423,2013-02-25 21:54:00,
2013-02-25 16:59:00,34.6,30.6,29.59,West,270,0.0,0.0,86,-99.99,,,-99.99,WSDL version 423,2013-02-25 21:59:00,
2013-02-25 17:04:00,34.5,30.6,29.59,West,270,0.0,0.0,86,-99.99,,,-99.99,WSDL version 423,2013-02-25 22:04:00,
2013-02-25 17:09:00,34.3,30.7,29.62,South,173,0.0,0.0,87,-99.99,,,-99.99,WSDL version 423,2013-02-25 22:09:00,
2013-02-25 17:14:00,34.1,30.7,29.62,South,180,0.0,0.0,88,-99.99,,,-99.99,WSDL version 423,2013-02-25 22:14:00,
2013-02-25 17:19:00,34.0,30.7,29.62,South,180,0.0,0.0,88,-99.99,,,-99.99,WSDL version 423,2013-02-25 22:19:00,
2013-02-25 17:24:00,33.8,30.8,29.59,South,180,0.0,0.0,89,-99.99,,,-99.99,WSDL version 423,2013-02-25 22:24:00,
2013-02-25 17:29:00,33.7,30.9,29.59,South,180,0.0,0.0,90,-99.99,,,-99.99,WSDL version 423,2013-02-25 22:29:00,
2013-02-25 17:34:00,33.6,31.0,29.59,South,180,0.0,0.0,90,-99.99,,,-99.99,WSDL version 423,2013-02-25 22:34:00,
2013-02-25 17:39:00,33.5,31.1,29.62,South,180,0.0,0.0,91,-99.99,,,-99.99,WSDL version 423,2013-02-25 22:39:00,
2013-02-25 17:44:00,33.4,31.1,29.62,South,180,0.0,0.0,91,-99.99,,,-99.99,WSDL version 423,2013-02-25 22:44:00,
2013-02-25 17:49:00,33.2,30.9,29.62,South,180,0.0,0.0,91,-99.99,,,-99.99,WSDL version 423,2013-02-25 22:49:00,
2013-02-25 17:54:00,33.1,30.8,29.62,South,180,0.0,0.0,92,-99.99,,,-99.99,WSDL version 423,2013-02-25 22:54:00,
2013-02-25 17:59:00,32.9,30.9,29.62,South,180,0.0,0.0,92,-99.99,,,-99.99,WSDL version 423,2013-02-25 22:59:00,
2013-02-25 18:04:00,32.7,30.8,29.62,South,180,0.0,0.0,93,-99.99,,,-99.99,WSDL version 423,2013-02-25 23:04:00,
2013-02-25 18:09:00,32.5,30.8,29.62,South,180,0.0,0.0,93,-99.99,,,-99.99,WSDL version 423,2013-02-25 23:09:00,
2013-02-25 18:14:00,32.4,30.9,29.62,South,180,0.0,0.0,94,-99.99,,,-99.99,WSDL version 423,2013-02-25 23:14:00,
2013-02-25 18:19:00,32.2,30.8,29.62,South,180,0.0,0.0,94,-99.99,,,-99.99,WSDL version 423,2013-02-25 23:19:00,
2013-02-25 18:24:00,32.2,31.0,29.62,South,180,0.0,0.0,96,-99.99,,,-99.99,WSDL version 423,2013-02-25 23:24:00,
2013-02-25 18:29:00,32.1,31.0,29.62,South,180,0.0,0.0,96,-99.99,,,-99.99,WSDL version 423,2013-02-25 23:29:00,
2013-02-25 18:34:00,31.9,30.9,29.62,South,180,0.0,0.0,96,-99.99,,,-99.99,WSDL version 423,2013-02-25 23:34:00,
2013-02-25 18:39:00,31.8,30.9,29.62,South,180,0.0,0.0,97,-99.99,,,-99.99,WSDL version 423,2013-02-25 23:39:00,
2013-02-25 18:44:00,31.8,31.1,29.62,South,180,0.0,0.0,97,-99.99,,,-99.99,WSDL version 423,2013-02-25 23:44:00,
2013-02-25 18:54:00,31.5,30.7,29.62,SE,140,0.0,0.0,97,-99.99,,,-99.99,WSDL version 423,2013-02-25 23:54:00,
2013-02-25 18:59:00,31.5,30.8,29.62,South,180,0.0,0.0,98,-99.99,,,-99.99,WSDL version 423,2013-02-25 23:59:00,
2013-02-25 19:04:00,31.5,31.0,29.62,South,180,0.0,0.0,98,-99.99,,,-99.99,WSDL version 423,2013-02-26 00:04:00,
2013-02-25 19:09:00,31.5,30.7,29.62,South,180,0.0,0.0,97,-99.99,,,-99.99,WSDL version 423,2013-02-26 00:09:00,
2013-02-25 19:14:00,31.5,30.7,29.62,South,180,0.0,0.0,97,-99.99,,,-99.99,WSDL version 423,2013-02-26 00:14:00,
2013-02-25 19:19:00,31.4,30.9,29.62,South,180,0.0,0.0,98,-99.99,,,-99.99,WSDL version 423,2013-02-26 00:19:00,
2013-02-25 19:24:00,31.3,30.8,29.62,South,180,0.0,0.0,98,-99.99,,,-99.99,WSDL version 423,2013-02-26 00:24:00,
2013-02-25 19:29:00,31.3,31.0,29.62,South,180,0.0,0.0,99,-99.99,,,-99.99,WSDL version 423,2013-02-26 00:29:00,
2013-02-25 19:34:00,31.3,31.0,29.62,SSW,203,0.0,0.0,99,-99.99,,,-99.99,WSDL version 423,2013-02-26 00:34:00,
2013-02-25 19:39:00,31.3,31.0,29.62,SW,225,0.0,0.0,99,-99.99,,,-99.99,WSDL version 423,2013-02-26 00:39:00,
2013-02-25 19:44:00,31.3,31.1,29.62,SW,225,0.0,0.0,99,-99.99,,,-99.99,WSDL version 423,2013-02-26 00:44:00,
2013-02-25 19:49:00,31.4,31.1,29.62,West,270,0.0,0.0,99,-99.99,,,-99.99,WSDL version 423,2013-02-26 00:49:00,
2013-02-25 19:54:00,31.5,31.4,29.62,South,180,0.0,0.0,100,-99.99,,,-99.99,WSDL version 423,2013-02-26 00:54:00,
2013-02-25 19:59:00,31.6,31.6,29.62,South,180,0.0,0.0,100,-99.99,,,-99.99,WSDL version 423,2013-02-26 00:59:00,
2013-02-25 20:04:00,31.6,31.6,29.62,South,180,0.0,0.0,100,-99.99,,,-99.99,WSDL version 423,2013-02-26 01:04:00,
2013-02-25 20:14:00,31.7,31.7,29.62,South,180,0.0,0.0,100,-99.99,,,-99.99,WSDL version 423,2013-02-26 01:14:00,
2013-02-25 20:19:00,31.8,31.8,29.62,South,180,0.0,0.0,100,-99.99,,,-99.99,WSDL version 423,2013-02-26 01:19:00,
2013-02-25 20:24:00,31.8,31.8,29.62,WNW,293,0.0,0.0,100,-99.99,,,-99.99,WSDL version 423,2013-02-26 01:24:00,
2013-02-25 20:29:00,31.7,31.7,29.62,WNW,293,0.0,0.0,100,-99.99,,,-99.99,WSDL version 423,2013-02-26 01:29:00,
2013-02-25 20:34:00,31.6,31.6,29.62,WNW,293,0.0,0.0,100,-99.99,,,-99.99,WSDL version 423,2013-02-26 01:34:00,
2013-02-25 20:39:00,31.6,31.6,29.65,WNW,293,0.0,0.0,100,-99.99,,,-99.99,WSDL version 423,2013-02-26 01:39:00,
2013-02-25 20:44:00,31.6,31.6,29.65,WNW,293,0.0,0.0,100,-99.99,,,-99.99,WSDL version 423,2013-02-26 01:44:00,
2013-02-25 20:49:00,31.6,31.6,29.65,NW,308,0.0,0.0,100,-99.99,,,-99.99,WSDL version 423,2013-02-26 01:49:00,
2013-02-25 20:54:00,31.5,31.5,29.62,NW,315,0.0,0.0,100,-99.99,,,-99.99,WSDL version 423,2013-02-26 01:54:00,
2013-02-25 20:59:00,31.5,31.5,29.62,NW,323,0.0,0.0,100,-99.99,,,-99.99,WSDL version 423,2013-02-26 01:59:00,
2013-02-25 21:04:00,31.5,31.5,29.62,North,355,0.0,0.0,100,-99.99,,,-99.99,WSDL version 423,2013-02-26 02:04:00,
2013-02-25 21:09:00,31.5,31.5,29.62,NNE,17,0.0,0.0,100,-99.99,,,-99.99,WSDL version 423,2013-02-26 02:09:00,
2013-02-25 21:14:00,31.4,31.4,29.62,NNW,338,0.0,0.0,100,-99.99,,,-99.99,WSDL version 423,2013-02-26 02:14:00,
2013-02-25 21:19:00,31.3,31.3,29.62,NNW,338,0.0,0.0,100,-99.99,,,-99.99,WSDL version 423,2013-02-26 02:19:00,
2013-02-25 21:24:00,31.3,31.3,29.62,NNW,338,0.2,1.3,100,-99.99,,,-99.99,WSDL version 423,2013-02-26 02:24:00,
2013-02-25 21:29:00,31.3,31.3,29.62,NNW,340,1.0,2.2,100,-99.99,,,-99.99,WSDL version 423,2013-02-26 02:29:00,
2013-02-25 21:34:00,31.3,31.3,29.62,NNW,338,0.0,2.2,100,-99.99,,,-99.99,WSDL version 423,2013-02-26 02:34:00,
2013-02-25 21:39:00,31.2,31.2,29.62,NE,45,0.0,1.6,100,-99.99,,,-99.99,WSDL version 423,2013-02-26 02:39:00,
2013-02-25 21:44:00,31.1,31.1,29.62,NNW,338,0.0,0.0,100,-99.99,,,-99.99,WSDL version 423,2013-02-26 02:44:00,
2013-02-25 21:49:00,31.1,31.1,29.62,ESE,113,0.0,0.0,100,-99.99,,,-99.99,WSDL version 423,2013-02-26 02:49:00,
2013-02-25 21:54:00,31.1,31.1,29.62,SE,130,0.0,0.0,100,-99.99,,,-99.99,WSDL version 423,2013-02-26 02:54:00,
2013-02-25 21:59:00,31.1,31.1,29.62,SE,135,0.0,0.0,100,-99.99,,,-99.99,WSDL version 423,2013-02-26 02:59:00,
2013-02-25 22:04:00,31.1,31.1,29.62,SE,125,0.0,0.0,100,-99.99,,,-99.99,WSDL version 423,2013-02-26 03:04:00,
2013-02-25 22:09:00,30.9,30.9,29.65,North,357,0.0,0.0,100,-99.99,,,-99.99,WSDL version 423,2013-02-26 03:09:00,
2013-02-25 22:14:00,30.9,30.9,29.65,NNE,15,0.0,0.0,100,-99.99,,,-99.99,WSDL version 423,2013-02-26 03:14:00,
2013-02-25 22:19:00,31.1,31.1,29.65,ESE,107,0.0,0.0,100,-99.99,,,-99.99,WSDL version 423,2013-02-26 03:19:00,
2013-02-25 22:24:00,31.0,31.0,29.65,ESE,113,0.0,0.0,100,-99.99,,,-99.99,WSDL version 423,2013-02-26 03:24:00,
2013-02-25 22:29:00,30.8,30.8,29.65,ESE,113,0.0,0.0,100,-99.99,,,-99.99,WSDL version 423,2013-02-26 03:29:00,
2013-02-25 22:34:00,30.7,30.7,29.65,ESE,113,0.0,0.0,100,-99.99,,,-99.99,WSDL version 423,2013-02-26 03:34:00,
2013-02-25 22:39:00,30.6,30.6,29.62,ESE,113,0.0,0.0,100,-99.99,,,-99.99,WSDL version 423,2013-02-26 03:39:00,
2013-02-25 22:44:00,30.4,30.4,29.62,ESE,113,0.0,0.0,100,-99.99,,,-99.99,WSDL version 423,2013-02-26 03:44:00,
2013-02-25 22:49:00,30.4,30.4,29.62,ESE,113,0.0,0.0,100,-99.99,,,-99.99,WSDL version 423,2013-02-26 03:49:00,
2013-02-25 22:54:00,30.4,30.4,29.62,ESE,113,0.0,0.0,100,-99.99,,,-99.99,WSDL version 423,2013-02-26 03:54:00,
2013-02-25 22:59:00,30.2,30.2,29.62,ESE,113,0.0,0.0,100,-99.99,,,-99.99,WSDL version 423,2013-02-26 03:59:00,
2013-02-25 23:04:00,30.4,30.4,29.62,ESE,113,0.0,0.0,100,-99.99,,,-99.99,WSDL version 423,2013-02-26 04:04:00,
2013-02-25 23:09:00,30.4,30.4,29.62,ESE,113,0.0,0.0,100,-99.99,,,-99.99,WSDL version 423,2013-02-26 04:09:00,
2013-02-25 23:14:00,30.3,30.3,29.62,ESE,110,0.0,0.0,100,-99.99,,,-99.99,WSDL version 423,2013-02-26 04:14:00,
2013-02-25 23:19:00,30.2,30.2,29.62,East,90,0.0,0.0,100,-99.99,,,-99.99,WSDL version 423,2013-02-26 04:19:00,
2013-02-25 23:24:00,30.2,30.2,29.62,East,90,0.0,0.0,100,-99.99,,,-99.99,WSDL version 423,2013-02-26 04:24:00,
2013-02-25 23:34:00,30.4,30.4,29.62,ENE,78,0.0,0.0,100,-99.99,,,-99.99,WSDL version 423,2013-02-26 04:34:00,
2013-02-25 23:39:00,30.2,30.2,29.65,North,360,0.0,0.0,100,-99.99,,,-99.99,WSDL version 423,2013-02-26 04:39:00,
2013-02-25 23:44:00,30.2,30.2,29.65,North,360,0.0,0.0,100,-99.99,,,-99.99,WSDL version 423,2013-02-26 04:44:00,
2013-02-25 23:49:00,30.2,30.2,29.65,North,360,0.0,0.0,100,-99.99,,,-99.99,WSDL version 423,2013-02-26 04:49:00,
2013-02-25 23:54:00,30.2,30.2,29.62,NNW,338,0.0,0.0,100,-99.99,,,-99.99,WSDL version 423,2013-02-26 04:54:00,
2013-02-25 23:59:00,30.2,30.2,29.62,NNW,338,0.0,0.0,100,-99.99,,,-99.99,WSDL version 423,2013-02-26 04:59:00,